Port Byron, Illinois
Current Conditions -  °F | °C
As of 12:31 AM on Wednesday 28 Jan 2015 (Local Time) from KDVN Reporting Station
Overcast Overcast  
Wind Chill: 14°   Ceiling: 900
Heat Index: 26°   Visibility: 8mi
Dew Point: 21°   Wind: 14mph
Humidity: 81%   Direction: 150°SSE
Pressure: 30.23"   Gusts: NA
Location:  41.61°N, 90.34°W
Report Text: KDVN 280631Z AUTO 15012KT 8SM OVC009 M03/M06 A3023 RMK AO2 T10331061
Loading
Personal Weather Stations






























Interactive Weather Map New forecast layout! Learn more

10-Day Weather Forecast

Advertisements
Track Severe Weather on mobile